Time;durP1;ratioP1;P1;durP2;ratioP2;P2;SDS_P1;SDS_P2;PMS_P1;PMS_P2;Temp;Humidity;BMP_temperature;BMP_pressure;BME280_temperature;BME280_humidity;BME280_pressure;Samples;Min_cycle;Max_cycle;Signal;HPM_P1;HPM_P2
2023/07/03 05:26:17;;;;;;;;;6.25;6.00;;;;;23.67;49.91;101038.03;5134094;27;45367;-68
2023/07/03 05:28:42;;;;;;;;;5.75;5.25;;;;;23.96;49.19;101039.84;5116680;27;45365;-69
2023/07/03 05:31:08;;;;;;;;;8.75;5.00;;;;;23.94;48.72;101039.97;5115980;27;54614;-68
2023/07/03 05:33:33;;;;;;;;;8.00;5.00;;;;;24.23;48.09;101039.91;5116075;27;59927;-69
2023/07/03 05:36:01;;;;;;;;;1.00;1.00;;;;;24.51;47.49;101025.16;5116265;27;52185;-70
2023/07/03 05:38:27;;;;;;;;;6.75;6.00;;;;;24.48;47.62;101021.88;5116194;27;45297;-69
2023/07/03 05:40:53;;;;;;;;;6.00;5.25;;;;;24.79;46.91;101017.78;5116423;27;45284;-71
2023/07/03 05:43:19;;;;;;;;;6.25;6.25;;;;;24.97;46.53;101027.94;5116535;27;45396;-70
2023/07/03 05:45:47;;;;;;;;;9.50;6.25;;;;;24.99;45.79;101024.03;5115690;27;45471;-70
2023/07/03 05:48:12;;;;;;;;;5.75;5.75;;;;;24.89;46.05;101026.81;5116514;27;45403;-70
2023/07/03 05:53:10;;;;;;;;;6.75;4.75;;;;;24.95;45.91;101022.59;5053856;28;46610;-69
2023/07/03 05:55:35;;;;;;;;;6.75;5.50;;;;;25.16;45.47;101028.63;5054925;28;45273;-69
2023/07/03 05:58:02;;;;;;;;;7.00;6.00;;;;;25.11;44.98;101035.59;5054588;28;45316;-71
2023/07/03 06:00:30;;;;;;;;;4.00;4.00;;;;;25.02;45.02;101029.19;5054962;28;45344;-70
2023/07/03 06:02:56;;;;;;;;;7.75;5.50;;;;;25.09;44.83;101027.56;5054303;28;45473;-69
2023/07/03 06:05:22;;;;;;;;;6.50;6.50;;;;;25.17;44.89;101029.50;5054490;28;46942;-71
2023/07/03 06:07:47;;;;;;;;;2.75;2.50;;;;;25.26;44.58;101020.31;5055067;28;57866;-69
2023/07/03 06:10:13;;;;;;;;;9.50;6.00;;;;;25.30;44.23;101034.56;5054894;28;45288;-70
2023/07/03 06:12:39;;;;;;;;;3.75;3.75;;;;;25.41;44.18;101034.34;5054447;28;49286;-70
2023/07/03 06:15:05;;;;;;;;;4.00;2.75;;;;;25.27;44.07;101028.38;5054684;28;46365;-69
2023/07/03 06:17:31;;;;;;;;;5.75;4.00;;;;;25.49;43.92;101038.00;5054755;28;45395;-71
2023/07/03 06:19:57;;;;;;;;;1.75;1.75;;;;;25.69;43.40;101037.84;5053253;28;45313;-71
2023/07/03 06:22:22;;;;;;;;;2.75;0.75;;;;;25.47;43.24;101042.78;5054121;28;45554;-71
2023/07/03 06:24:48;;;;;;;;;1.00;1.00;;;;;25.59;43.32;101033.31;5054984;28;46304;-71
2023/07/03 06:27:14;;;;;;;;;2.50;2.50;;;;;25.82;42.69;101036.38;5040843;28;45395;-73
2023/07/03 06:29:40;;;;;;;;;11.00;8.50;;;;;25.96;42.55;101032.16;5041255;28;45323;-72
2023/07/03 06:32:08;;;;;;;;;4.25;4.25;;;;;25.99;41.95;101035.47;5041082;28;45327;-71
2023/07/03 06:34:34;;;;;;;;;4.75;4.75;;;;;26.04;41.83;101037.72;5040749;28;46354;-71
2023/07/03 06:37:00;;;;;;;;;8.50;5.25;;;;;26.16;41.87;101041.91;5034454;28;45785;-69
2023/07/03 06:39:26;;;;;;;;;8.00;6.00;;;;;26.12;41.85;101042.38;5054423;28;45348;-71
2023/07/03 06:41:51;;;;;;;;;4.00;4.00;;;;;26.10;41.75;101033.47;5040058;28;45186;-71
2023/07/03 06:44:18;;;;;;;;;3.25;3.00;;;;;26.14;41.61;101041.22;5038713;28;46930;-72
2023/07/03 06:46:44;;;;;;;;;7.00;4.00;;;;;26.08;41.81;101038.25;5040751;28;45395;-70
2023/07/03 06:49:10;;;;;;;;;6.50;5.75;;;;;26.13;42.05;101038.63;5039587;28;45415;-71
2023/07/03 06:51:36;;;;;;;;;4.50;3.75;;;;;26.14;42.03;101040.34;5040021;28;54227;-72
2023/07/03 06:54:03;;;;;;;;;6.75;4.00;;;;;26.05;41.54;101033.09;5022267;28;46412;-71
2023/07/03 06:56:29;;;;;;;;;5.00;5.00;;;;;26.03;41.63;101035.97;5040045;28;45397;-72
2023/07/03 06:58:54;;;;;;;;;5.50;4.00;;;;;26.18;41.87;101033.50;5040167;28;45566;-71
2023/07/03 07:01:22;;;;;;;;;2.50;0.75;;;;;26.36;41.21;101034.31;5040537;28;45301;-71
2023/07/03 07:03:48;;;;;;;;;4.00;4.00;;;;;26.11;42.07;101040.69;5040289;28;45447;-70
2023/07/03 07:06:16;;;;;;;;;5.75;5.25;;;;;26.26;41.08;101026.19;5040188;28;45321;-72
2023/07/03 07:08:41;;;;;;;;;1.75;1.75;;;;;26.53;41.01;101038.84;5040382;28;45432;-72
2023/07/03 07:11:09;;;;;;;;;3.00;3.00;;;;;26.38;40.94;101041.34;5040184;28;45438;-71
2023/07/03 07:13:35;;;;;;;;;7.00;6.00;;;;;26.28;40.84;101040.66;5039853;28;46229;-71
2023/07/03 07:16:01;;;;;;;;;3.50;2.50;;;;;26.54;41.17;101046.06;5038954;28;45557;-71
2023/07/03 07:18:26;;;;;;;;;6.00;6.00;;;;;26.66;40.86;101050.22;5039253;28;48611;-71
2023/07/03 07:20:54;;;;;;;;;6.00;6.00;;;;;26.53;40.51;101038.84;5039966;28;53656;-70
2023/07/03 07:23:19;;;;;;;;;5.00;2.50;;;;;26.72;40.63;101046.81;5039678;28;47157;-70
2023/07/03 07:25:52;;;;;;;;;5.50;3.75;;;;;26.70;39.99;101048.88;5039648;28;45399;-73
2023/07/03 07:28:17;;;;;;;;;4.75;3.25;;;;;26.77;40.58;101040.81;5037157;28;45526;-70
2023/07/03 07:30:43;;;;;;;;;10.25;7.00;;;;;26.38;41.13;101044.09;5039387;28;52230;-70
2023/07/03 07:33:08;;;;;;;;;10.00;6.75;;;;;26.49;40.91;101036.59;5037874;28;49869;-70
2023/07/03 07:35:35;;;;;;;;;8.25;5.00;;;;;26.47;40.99;101042.25;5038008;28;56302;-70
2023/07/03 07:38:00;;;;;;;;;4.25;2.25;;;;;26.42;41.55;101038.28;5036487;28;45345;-69
2023/07/03 07:40:26;;;;;;;;;5.50;4.25;;;;;26.54;41.02;101042.47;5038453;28;45289;-69
2023/07/03 07:42:51;;;;;;;;;5.25;4.25;;;;;26.62;40.96;101046.09;5039568;28;45444;-70
2023/07/03 07:45:16;;;;;;;;;4.75;4.75;;;;;26.73;40.35;101043.03;5040176;28;45322;-70
2023/07/03 07:47:42;;;;;;;;;3.50;3.25;;;;;26.67;40.97;101046.47;5039985;28;45493;-71
2023/07/03 07:50:08;;;;;;;;;3.50;3.50;;;;;26.74;40.94;101047.50;5038680;28;60834;-70
2023/07/03 07:52:33;;;;;;;;;4.75;3.25;;;;;26.94;40.29;101045.34;5039663;28;45183;-70
2023/07/03 07:54:58;;;;;;;;;5.25;4.00;;;;;27.13;39.92;101055.19;5039718;28;45368;-70
2023/07/03 07:57:25;;;;;;;;;4.50;2.75;;;;;27.33;40.33;101053.81;5039941;28;45282;-70
2023/07/03 07:59:51;;;;;;;;;5.50;4.00;;;;;27.33;39.94;101059.31;5039487;28;45365;-71
2023/07/03 08:02:16;;;;;;;;;5.25;5.25;;;;;27.40;39.32;101054.84;5039130;28;50997;-70
2023/07/03 08:04:43;;;;;;;;;3.00;3.00;;;;;27.36;39.62;101047.97;5039763;28;45336;-71
2023/07/03 08:07:08;;;;;;;;;6.50;5.25;;;;;27.47;39.24;101055.06;5039155;28;45330;-70
2023/07/03 08:09:34;;;;;;;;;6.50;4.75;;;;;27.59;38.90;101055.56;5039085;28;45794;-69
2023/07/03 08:12:03;;;;;;;;;3.00;3.00;;;;;27.21;38.60;101057.97;5038973;28;54086;-70
2023/07/03 08:14:28;;;;;;;;;5.75;4.00;;;;;27.17;38.49;101053.81;5039451;28;45258;-70
2023/07/03 08:16:54;;;;;;;;;5.50;5.50;;;;;27.09;38.99;101059.31;5039417;28;45325;-69
2023/07/03 08:19:19;;;;;;;;;5.00;5.00;;;;;27.15;38.90;101058.63;5038132;28;45285;-62
2023/07/03 08:21:45;;;;;;;;;8.75;4.25;;;;;27.10;38.51;101052.78;5037299;28;48917;-63
2023/07/03 08:24:10;;;;;;;;;6.50;3.50;;;;;27.12;38.96;101056.22;5038873;28;45596;-62
2023/07/03 08:26:36;;;;;;;;;5.50;5.25;;;;;26.97;38.49;101046.88;5039137;28;45416;-63
2023/07/03 08:29:01;;;;;;;;;6.50;5.00;;;;;26.89;38.43;101052.34;5039176;28;45370;-64
2023/07/03 08:31:26;;;;;;;;;3.50;3.00;;;;;26.98;38.35;101043.97;5039086;28;45451;-62
2023/07/03 08:33:52;;;;;;;;;4.75;3.75;;;;;27.23;38.29;101053.13;5039126;28;45400;-63
2023/07/03 08:36:17;;;;;;;;;4.75;3.25;;;;;27.41;38.00;101047.47;5038693;28;45368;-63
2023/07/03 08:38:43;;;;;;;;;3.00;3.00;;;;;27.69;37.55;101051.63;5039098;28;45610;-62
2023/07/03 08:41:14;;;;;;;;;4.75;3.00;;;;;27.78;36.91;101047.81;5038673;28;48379;-62
2023/07/03 08:43:42;;;;;;;;;3.00;3.00;;;;;27.44;37.64;101056.25;5039295;28;45338;-62
2023/07/03 08:46:21;;;;;;;;;6.00;5.00;;;;;27.45;37.60;101049.72;5038947;28;45399;-63
2023/07/03 08:48:49;;;;;;;;;6.50;3.25;;;;;27.56;37.35;101058.69;5038545;28;45341;-63
2023/07/03 08:51:18;;;;;;;;;8.25;6.50;;;;;27.24;38.30;101054.84;5037695;28;45250;-63
2023/07/03 08:53:47;;;;;;;;;4.75;3.25;;;;;27.38;37.65;101054.19;5038606;28;45333;-65
2023/07/03 08:56:26;;;;;;;;;8.25;4.00;;;;;27.57;37.67;101050.22;5038691;28;45392;-64
2023/07/03 08:58:53;;;;;;;;;6.00;4.50;;;;;27.49;37.59;101056.56;5038591;28;45325;-64
2023/07/03 09:01:26;;;;;;;;;5.00;5.00;;;;;27.49;37.93;101061.22;5038492;28;47387;-63
2023/07/03 09:04:23;;;;;;;;;5.75;4.25;;;;;27.36;38.81;101060.88;5038582;28;45546;-63
2023/07/03 09:07:02;;;;;;;;;3.75;2.50;;;;;27.40;38.79;101068.63;5038365;28;45449;-64
2023/07/03 09:09:38;;;;;;;;;6.75;5.25;;;;;27.31;38.62;101071.53;5038298;28;45206;-63
2023/07/03 09:12:21;;;;;;;;;3.00;3.00;;;;;27.39;38.75;101064.16;5037609;28;46224;-63
2023/07/03 09:14:52;;;;;;;;;8.00;5.75;;;;;27.22;38.30;101073.41;5020364;28;45369;-64
2023/07/03 09:17:18;;;;;;;;;3.75;3.75;;;;;27.22;38.97;101073.41;5038527;28;45349;-63
2023/07/03 09:19:48;;;;;;;;;6.75;3.75;;;;;27.14;39.07;101073.41;5038339;28;45309;-64
2023/07/03 09:22:30;;;;;;;;;8.00;4.50;;;;;27.05;38.98;101061.53;5038163;28;46297;-64
2023/07/03 09:24:59;;;;;;;;;4.00;4.00;;;;;27.20;39.06;101064.50;5038392;28;45367;-64
2023/07/03 09:27:26;;;;;;;;;6.50;5.25;;;;;27.31;39.14;101069.66;5036225;28;45306;-58
2023/07/03 09:29:54;;;;;;;;;5.00;5.00;;;;;27.40;38.60;101063.13;5037142;28;45773;-57
2023/07/03 09:32:26;;;;;;;;;5.50;3.25;;;;;27.64;38.76;101062.31;5038326;28;46212;-58
2023/07/03 09:35:13;;;;;;;;;9.50;6.25;;;;;27.73;37.98;101064.00;5037876;28;45491;-57
2023/07/03 09:37:41;;;;;;;;;5.25;5.25;;;;;27.86;38.11;101049.69;5037840;28;45341;-57
2023/07/03 09:40:12;;;;;;;;;7.00;5.50;;;;;28.01;37.82;101058.09;5038382;28;45332;-58
2023/07/03 09:42:40;;;;;;;;;8.75;4.75;;;;;27.94;37.47;101051.56;5038126;28;46334;-57
2023/07/03 09:45:20;;;;;;;;;5.75;3.50;;;;;28.25;36.89;101041.50;5038192;28;45505;-57
2023/07/03 09:48:29;;;;;;;;;5.50;4.25;;;;;28.41;36.19;101057.16;5038171;28;45410;-59
2023/07/03 09:50:55;;;;;;;;;3.50;3.50;;;;;28.39;36.82;101060.09;5037466;28;45618;-58
2023/07/03 09:53:24;;;;;;;;;3.00;3.00;;;;;28.43;36.01;101058.69;5037997;28;45368;-59
2023/07/03 09:55:58;;;;;;;;;3.75;3.75;;;;;28.61;36.10;101064.81;5038270;28;45436;-58
2023/07/03 09:58:29;;;;;;;;;1.75;1.75;;;;;28.67;36.31;101051.38;5038255;28;45316;-58
2023/07/03 10:00:57;;;;;;;;;3.50;3.50;;;;;28.76;35.99;101056.66;5038674;28;45445;-58
2023/07/03 10:03:29;;;;;;;;;3.50;3.00;;;;;28.92;35.87;101059.31;5040548;28;46342;-58
2023/07/03 10:05:56;;;;;;;;;9.00;5.50;;;;;28.86;35.53;101068.34;5040118;28;45341;-58
2023/07/03 10:08:27;;;;;;;;;4.75;4.75;;;;;28.94;36.20;101076.56;5040147;28;45316;-57
2023/07/03 10:10:55;;;;;;;;;3.00;3.00;;;;;29.07;35.49;101084.28;5040975;28;45383;-58
2023/07/03 10:13:37;;;;;;;;;4.50;4.00;;;;;29.08;35.04;101083.25;5041325;28;46378;-58
2023/07/03 10:16:04;;;;;;;;;6.50;3.75;;;;;28.97;35.30;101078.97;5040747;28;45423;-56
2023/07/03 10:18:33;;;;;;;;;5.50;4.00;;;;;29.10;34.58;101071.97;5040781;28;45443;-58
2023/07/03 10:21:02;;;;;;;;;4.25;4.25;;;;;29.19;34.53;101080.03;5040345;28;45408;-57
2023/07/03 10:23:40;;;;;;;;;3.00;3.00;;;;;29.37;34.51;101084.44;5040891;28;46352;-62
2023/07/03 10:26:18;;;;;;;;;5.50;2.75;;;;;29.55;34.86;101080.31;5040907;28;45455;-61
2023/07/03 10:28:46;;;;;;;;;2.75;2.75;;;;;29.42;34.40;101087.53;5038936;28;45352;-63
2023/07/03 10:31:23;;;;;;;;;5.75;5.00;;;;;29.49;34.34;101082.97;5039140;28;47213;-62
2023/07/03 10:33:55;;;;;;;;;9.00;5.00;;;;;29.67;33.74;101084.38;5040063;28;46333;-62
2023/07/03 10:36:26;;;;;;;;;3.75;2.75;;;;;29.54;34.00;101088.78;5040917;28;45546;-62
2023/07/03 10:38:58;;;;;;;;;5.75;4.00;;;;;29.61;33.51;101082.31;5041278;28;45376;-62
2023/07/03 10:41:33;;;;;;;;;4.25;4.25;;;;;29.56;33.25;101076.50;5040961;28;45385;-60
2023/07/03 10:44:12;;;;;;;;;7.75;5.50;;;;;29.23;33.47;101089.69;5040829;28;45418;-61
2023/07/03 10:46:54;;;;;;;;;5.00;2.00;;;;;28.84;33.37;101089.72;5040826;28;45507;-61
2023/07/03 10:49:31;;;;;;;;;2.75;2.75;;;;;29.09;33.94;101084.09;5040915;28;45349;-60
2023/07/03 10:52:05;;;;;;;;;3.50;3.00;;;;;28.91;33.27;101073.34;5040240;28;45390;-62
2023/07/03 10:54:37;;;;;;;;;5.25;5.00;;;;;28.60;33.78;101073.28;5040413;28;45594;-62
2023/07/03 10:57:07;;;;;;;;;4.00;3.00;;;;;28.94;33.18;101078.47;5040524;28;45529;-61
2023/07/03 10:59:41;;;;;;;;;3.25;3.00;;;;;28.75;31.44;101076.16;5040551;28;45348;-61
2023/07/03 11:02:35;;;;;;;;;4.00;2.00;;;;;28.68;32.04;101062.19;5037112;28;45457;-60
2023/07/03 11:05:05;;;;;;;;;3.25;2.75;;;;;28.81;31.07;101072.69;5012691;28;48013;-60
2023/07/03 11:07:45;;;;;;;;;4.00;3.25;;;;;28.78;30.62;101070.28;5040179;28;45274;-60
2023/07/03 11:10:39;;;;;;;;;2.00;2.00;;;;;28.85;30.51;101069.38;5040230;28;45357;-61
2023/07/03 11:13:10;;;;;;;;;4.50;3.00;;;;;28.89;29.47;101062.47;5027191;28;46310;-62
2023/07/03 11:16:12;;;;;;;;;6.00;6.00;;;;;28.83;28.54;101056.81;5040146;28;46155;-60
2023/07/03 11:18:56;;;;;;;;;3.50;2.75;;;;;29.20;28.22;101058.81;5039746;28;45456;-61
2023/07/03 11:21:28;;;;;;;;;2.75;2.75;;;;;29.04;27.71;101014.75;5038524;28;45479;-60
2023/07/03 11:24:09;;;;;;;;;2.50;2.50;;;;;29.27;27.87;101059.78;5039737;28;46490;-61
2023/07/03 11:26:36;;;;;;;;;5.50;4.00;;;;;29.36;28.00;101058.72;5040274;28;45709;-61
2023/07/03 11:29:03;;;;;;;;;7.25;3.00;;;;;29.46;28.02;101055.69;5040103;28;45289;-61
2023/07/03 11:31:31;;;;;;;;;2.50;2.50;;;;;29.57;27.63;101049.75;5040494;28;45390;-60
2023/07/03 11:33:57;;;;;;;;;3.50;2.00;;;;;29.80;27.22;101044.16;5040196;28;45490;-67
2023/07/03 11:36:43;;;;;;;;;2.50;2.50;;;;;29.85;26.41;101050.00;5040027;28;45201;-68
2023/07/03 11:39:27;;;;;;;;;2.75;1.25;;;;;29.93;26.13;101060.97;5039959;28;45348;-69
2023/07/03 11:42:09;;;;;;;;;2.75;0.00;;;;;29.91;26.00;101052.00;5039415;28;45590;-62
2023/07/03 11:44:43;;;;;;;;;3.50;3.50;;;;;29.84;24.55;101056.56;5039543;28;45422;-62
2023/07/03 11:47:16;;;;;;;;;2.00;2.00;;;;;30.04;25.78;101043.94;5039750;28;46678;-63
2023/07/03 11:49:51;;;;;;;;;3.50;1.00;;;;;30.29;25.43;101053.66;5039828;28;45328;-63
2023/07/03 11:52:27;;;;;;;;;2.75;1.25;;;;;30.21;24.34;101059.28;5039467;28;45752;-64
2023/07/03 11:55:10;;;;;;;;;1.25;1.00;;;;;30.25;24.78;101063.41;5039266;28;45444;-63
2023/07/03 11:57:41;;;;;;;;;7.00;2.00;;;;;30.02;24.09;101052.44;5039495;28;45460;-63
2023/07/03 12:00:15;;;;;;;;;1.25;1.25;;;;;30.06;24.17;101064.81;5039467;28;45313;-63
2023/07/03 12:02:51;;;;;;;;;5.00;1.75;;;;;30.09;24.89;101047.00;5039148;28;45566;-62
2023/07/03 12:05:41;;;;;;;;;1.50;0.50;;;;;30.37;25.07;101056.34;5039423;28;45702;-63
2023/07/03 12:08:19;;;;;;;;;2.75;2.50;;;;;30.30;24.20;101060.91;5039292;28;45776;-63
2023/07/03 12:10:52;;;;;;;;;2.50;2.50;;;;;30.31;23.99;101070.94;5039503;28;45386;-63
2023/07/03 12:13:39;;;;;;;;;3.00;1.25;;;;;30.39;24.57;101064.44;5039702;28;45381;-62
2023/07/03 12:16:25;;;;;;;;;1.50;1.50;;;;;29.92;23.75;101087.75;5039495;28;45423;-62
2023/07/03 12:18:58;;;;;;;;;2.50;1.25;;;;;29.96;24.48;101067.00;5039309;28;45387;-62
2023/07/03 12:21:25;;;;;;;;;3.75;2.00;;;;;30.18;24.64;101070.75;5039209;28;45460;-63
2023/07/03 12:23:51;;;;;;;;;2.00;2.00;;;;;30.34;24.48;101075.25;5020930;28;45306;-62
2023/07/03 12:26:17;;;;;;;;;4.25;1.25;;;;;30.51;24.72;101056.53;5039292;28;45330;-63
2023/07/03 12:28:43;;;;;;;;;6.00;3.00;;;;;30.67;24.30;101046.13;5038878;28;46552;-63
2023/07/03 12:31:20;;;;;;;;;4.50;4.50;;;;;30.87;24.53;101071.31;5039176;28;45302;-63
2023/07/03 12:33:55;;;;;;;;;9.00;7.25;;;;;30.73;24.60;101083.25;5039041;28;45466;-59
2023/07/03 12:36:22;;;;;;;;;12.00;11.75;;;;;30.79;23.69;101057.56;5020750;28;45957;-60
2023/07/03 12:38:48;;;;;;;;;13.50;12.50;;;;;30.93;24.39;101081.59;5038954;28;45593;-61
2023/07/03 12:41:13;;;;;;;;;13.50;11.75;;;;;31.01;24.33;101058.47;5038905;28;45339;-62
2023/07/03 12:43:43;;;;;;;;;15.75;14.25;;;;;31.10;24.03;101063.72;5039060;28;45357;-60
2023/07/03 12:46:08;;;;;;;;;14.00;11.50;;;;;30.99;23.75;101058.66;5037472;28;45466;-60
2023/07/03 12:48:34;;;;;;;;;12.50;10.50;;;;;30.94;24.08;101065.84;5038178;28;46031;-60
2023/07/03 12:50:59;;;;;;;;;12.00;9.75;;;;;31.01;23.69;101069.53;5037595;28;50974;-60
2023/07/03 12:53:32;;;;;;;;;10.50;9.50;;;;;31.20;23.57;101072.56;5038489;28;45319;-59
2023/07/03 12:56:03;;;;;;;;;6.50;3.75;;;;;30.95;23.89;101064.78;5037601;28;45427;-60
2023/07/03 12:58:29;;;;;;;;;3.75;2.50;;;;;30.93;23.78;101064.97;5038479;28;45315;-61
2023/07/03 13:01:01;;;;;;;;;3.00;2.75;;;;;31.19;23.83;101068.06;5038007;28;45317;-61
2023/07/03 13:03:26;;;;;;;;;3.75;1.00;;;;;31.40;23.55;101069.13;5038507;28;45367;-61
2023/07/03 13:05:52;;;;;;;;;3.25;2.00;;;;;31.65;23.91;101062.13;5038294;28;45447;-61
2023/07/03 13:08:17;;;;;;;;;3.50;2.25;;;;;31.79;22.58;101063.97;5038784;28;45908;-61
2023/07/03 13:11:00;;;;;;;;;3.00;2.00;;;;;31.62;23.12;101073.66;5038767;28;45336;-61
2023/07/03 13:13:26;;;;;;;;;2.00;2.00;;;;;31.58;22.89;101056.50;5038782;28;45275;-60
2023/07/03 13:15:52;;;;;;;;;3.00;1.25;;;;;31.94;22.98;101059.19;5038131;28;45566;-60
2023/07/03 13:18:22;;;;;;;;;3.50;0.00;;;;;32.04;22.78;101058.84;5038794;28;46200;-60
2023/07/03 13:20:58;;;;;;;;;2.50;1.50;;;;;32.11;22.66;101045.84;5038145;28;45342;-61
2023/07/03 13:23:32;;;;;;;;;1.75;1.75;;;;;32.14;23.16;101048.25;5038706;28;45269;-60
2023/07/03 13:26:00;;;;;;;;;3.25;1.75;;;;;32.40;22.38;101024.50;5038770;28;45423;-60
2023/07/03 13:28:31;;;;;;;;;4.00;3.00;;;;;32.40;22.79;101038.38;5038285;28;46224;-60
2023/07/03 13:31:06;;;;;;;;;2.75;2.75;;;;;32.45;23.07;101036.69;5038471;28;45384;-61
2023/07/03 13:33:34;;;;;;;;;4.00;3.25;;;;;32.62;22.81;101035.28;5038189;28;45282;-60
2023/07/03 13:36:22;;;;;;;;;1.75;1.75;;;;;32.83;22.72;101036.25;5038926;28;46253;-61
2023/07/03 13:39:03;;;;;;;;;1.50;1.50;;;;;32.87;22.55;101021.72;5042205;28;45378;-61
2023/07/03 13:41:29;;;;;;;;;5.00;2.00;;;;;33.03;22.16;101026.03;5024047;28;45379;-61
2023/07/03 13:43:58;;;;;;;;;3.50;2.00;;;;;33.09;22.34;101027.13;5042238;28;45467;-60
2023/07/03 13:46:27;;;;;;;;;2.50;2.50;;;;;32.90;22.08;101032.44;5041790;28;45470;-61
2023/07/03 13:48:53;;;;;;;;;2.75;2.25;;;;;33.12;21.86;101027.56;5041834;28;46383;-58
2023/07/03 13:51:20;;;;;;;;;3.50;2.75;;;;;33.09;22.05;101024.34;5040162;28;45333;-58
2023/07/03 13:53:45;;;;;;;;;2.00;2.00;;;;;33.34;22.39;101022.72;5041730;28;45422;-59
2023/07/03 13:56:10;;;;;;;;;3.00;2.50;;;;;33.69;22.19;101018.63;5041538;28;45261;-59
2023/07/03 13:58:36;;;;;;;;;5.00;3.75;;;;;33.69;21.23;101032.53;5041581;28;45249;-59
2023/07/03 14:01:02;;;;;;;;;6.75;2.25;;;;;33.82;21.52;101028.09;5041317;28;45328;-59
2023/07/03 14:03:28;;;;;;;;;3.00;2.75;;;;;33.62;21.49;101030.84;5041880;28;45403;-58
2023/07/03 14:05:53;;;;;;;;;2.75;2.50;;;;;33.63;21.54;101038.09;5041017;28;45387;-60
2023/07/03 14:08:18;;;;;;;;;4.75;3.00;;;;;33.91;22.06;101030.44;5039009;28;46275;-59
2023/07/03 14:10:44;;;;;;;;;3.25;3.00;;;;;34.11;21.58;101034.00;5040652;28;45368;-59
2023/07/03 14:13:10;;;;;;;;;4.00;3.50;;;;;34.15;21.28;101037.22;5041598;28;45388;-56
2023/07/03 14:15:37;;;;;;;;;6.00;3.00;;;;;34.12;21.47;101029.31;5041119;28;45617;-59
2023/07/03 14:18:03;;;;;;;;;5.75;3.25;;;;;34.12;21.88;101023.72;5041038;28;45305;-60
2023/07/03 14:20:28;;;;;;;;;5.50;4.00;;;;;34.25;20.91;101025.69;5040830;28;45483;-57
2023/07/03 14:22:54;;;;;;;;;7.25;4.25;;;;;34.20;21.37;101023.50;5041336;28;45625;-60
2023/07/03 14:25:19;;;;;;;;;7.25;4.50;;;;;34.40;21.09;101023.47;5041118;28;45600;-59
2023/07/03 14:27:45;;;;;;;;;3.00;3.00;;;;;34.73;20.81;101023.34;5040946;28;46984;-58
2023/07/03 14:30:11;;;;;;;;;3.25;3.25;;;;;34.83;21.16;101015.41;5040647;28;45226;-58
2023/07/03 14:32:37;;;;;;;;;4.50;3.25;;;;;34.77;20.86;101003.22;5041345;28;45624;-59
2023/07/03 14:35:07;;;;;;;;;6.25;4.00;;;;;34.95;21.04;101016.41;5040495;28;45352;-58
2023/07/03 14:37:34;;;;;;;;;4.50;2.00;;;;;34.89;21.15;101006.13;5041128;28;46366;-58
2023/07/03 14:39:59;;;;;;;;;4.75;3.50;;;;;35.24;20.93;101007.44;5040862;28;45311;-58
2023/07/03 14:42:25;;;;;;;;;3.50;3.50;;;;;35.22;20.67;101008.69;5040928;28;45337;-58
2023/07/03 14:44:50;;;;;;;;;3.00;3.00;;;;;34.85;21.11;101007.69;5040790;28;45364;-58
2023/07/03 14:47:15;;;;;;;;;7.00;4.00;;;;;34.64;20.71;101006.03;5040378;28;45371;-58
2023/07/03 14:49:43;;;;;;;;;4.25;4.00;;;;;34.67;20.92;101011.16;5040707;28;49000;-59
2023/07/03 14:52:08;;;;;;;;;4.00;4.00;;;;;34.77;20.84;100999.56;5040497;28;45560;-58
2023/07/03 14:54:33;;;;;;;;;7.25;4.75;;;;;35.11;21.14;100999.16;5037791;28;56948;-57
2023/07/03 14:56:59;;;;;;;;;5.25;4.75;;;;;34.79;21.20;100995.47;5040268;28;45428;-59
2023/07/03 14:59:24;;;;;;;;;4.00;4.00;;;;;35.23;21.09;100991.78;5039560;28;45371;-58
2023/07/03 15:01:49;;;;;;;;;7.25;3.25;;;;;35.71;20.62;100993.97;5040575;28;47632;-59
2023/07/03 15:04:15;;;;;;;;;6.00;6.00;;;;;35.61;20.55;101005.66;5039940;28;45490;-60
2023/07/03 15:06:40;;;;;;;;;4.75;4.75;;;;;35.27;20.28;101007.00;5040302;28;45373;-59
2023/07/03 15:09:07;;;;;;;;;7.25;6.25;;;;;34.91;20.61;100993.69;5040309;28;45558;-58
2023/07/03 15:11:32;;;;;;;;;7.00;7.00;;;;;34.23;20.81;100999.94;5040862;28;45451;-58
2023/07/03 15:13:58;;;;;;;;;7.00;6.00;;;;;34.60;21.40;100996.41;5040220;28;45471;-59
2023/07/03 15:16:30;;;;;;;;;7.25;5.75;;;;;34.90;20.71;100991.13;5040456;28;46037;-59
2023/07/03 15:19:07;;;;;;;;;5.00;5.00;;;;;35.36;20.57;100996.41;5040338;28;45376;-58
2023/07/03 15:21:36;;;;;;;;;8.25;6.75;;;;;35.51;20.33;100984.91;5039837;28;45327;-59
2023/07/03 15:24:03;;;;;;;;;6.75;6.00;;;;;35.40;20.53;100992.09;5022984;28;45455;-58
2023/07/03 15:26:29;;;;;;;;;4.50;4.50;;;;;35.47;20.50;100987.34;5021492;28;47554;-59
2023/07/03 15:28:55;;;;;;;;;8.00;6.00;;;;;35.97;20.05;100992.88;5039735;28;45351;-58
2023/07/03 15:31:20;;;;;;;;;4.50;4.50;;;;;36.11;20.04;100985.22;5037235;28;45759;-58
2023/07/03 15:33:45;;;;;;;;;8.25;6.00;;;;;36.07;20.11;100998.75;5036864;28;45353;-59
2023/07/03 15:36:11;;;;;;;;;7.75;5.00;;;;;35.87;19.51;100993.41;5037776;28;45429;-59
2023/07/03 15:38:36;;;;;;;;;7.75;4.25;;;;;35.68;19.91;100988.84;5039180;28;45428;-58
2023/07/03 15:41:02;;;;;;;;;6.00;4.75;;;;;35.24;20.35;100984.28;5039446;28;45460;-58
2023/07/03 15:43:28;;;;;;;;;2.25;2.25;;;;;35.22;20.94;100992.81;5039298;28;45372;-59
2023/07/03 15:46:17;;;;;;;;;7.00;5.25;;;;;35.00;20.88;100991.50;5038375;28;46078;-58
2023/07/03 15:48:46;;;;;;;;;9.25;5.75;;;;;34.76;20.85;100990.38;5028210;28;45415;-58
2023/07/03 15:51:12;;;;;;;;;11.50;6.00;;;;;34.97;21.35;100980.78;5039498;28;45334;-58
2023/07/03 15:53:38;;;;;;;;;6.75;4.75;;;;;35.15;20.67;100978.09;5039224;28;45439;-57
2023/07/03 15:56:14;;;;;;;;;7.50;5.00;;;;;35.26;20.76;100977.41;5038820;28;46205;-57
2023/07/03 15:58:42;;;;;;;;;6.75;5.00;;;;;35.60;20.61;100987.19;5038407;28;45270;-59
2023/07/03 16:01:10;;;;;;;;;7.00;5.75;;;;;35.52;21.02;100981.91;5037068;28;45357;-58
2023/07/03 16:03:36;;;;;;;;;10.00;6.00;;;;;35.67;20.22;100971.25;5036570;28;45467;-57
2023/07/03 16:06:05;;;;;;;;;7.75;7.00;;;;;36.06;20.20;100979.47;5035919;28;45449;-58
2023/07/03 16:08:32;;;;;;;;;8.25;8.00;;;;;36.03;20.09;100978.84;5037522;28;45467;-58
2023/07/03 16:10:57;;;;;;;;;5.50;3.50;;;;;36.07;20.49;100978.41;5037254;28;45373;-58
2023/07/03 16:13:25;;;;;;;;;15.00;8.00;;;;;36.10;20.19;100977.91;5036896;28;45378;-58
2023/07/03 16:15:51;;;;;;;;;7.00;5.00;;;;;36.20;20.26;100986.63;5038623;28;45473;-57
2023/07/03 16:18:16;;;;;;;;;8.00;5.75;;;;;35.92;20.42;100990.78;5039721;28;45329;-58
2023/07/03 16:20:41;;;;;;;;;7.50;7.00;;;;;35.58;20.79;100988.50;5037723;28;45274;-59
2023/07/03 16:23:07;;;;;;;;;7.25;7.00;;;;;35.68;20.74;100977.69;5039538;28;45409;-58
2023/07/03 16:25:33;;;;;;;;;9.50;7.00;;;;;35.41;20.99;100982.63;5039360;28;45177;-57
2023/07/03 16:27:59;;;;;;;;;7.00;5.75;;;;;35.59;21.13;100974.31;5039640;28;45345;-58
2023/07/03 16:30:25;;;;;;;;;10.25;8.75;;;;;35.94;20.74;100988.59;5038367;28;45253;-58
2023/07/03 16:32:50;;;;;;;;;11.50;9.50;;;;;35.63;20.75;100974.75;5039241;28;45277;-58
2023/07/03 16:35:17;;;;;;;;;7.25;7.00;;;;;35.72;20.68;100989.28;5038658;28;45319;-59
2023/07/03 16:37:43;;;;;;;;;7.25;5.75;;;;;35.57;21.07;100986.78;5039308;28;45239;-59
2023/07/03 16:40:09;;;;;;;;;9.00;8.00;;;;;35.66;21.11;100977.06;5039298;28;45448;-58
2023/07/03 16:42:34;;;;;;;;;8.50;8.00;;;;;36.09;20.60;100974.25;5038871;28;45628;-57
2023/07/03 16:45:00;;;;;;;;;10.00;10.00;;;;;35.73;20.24;101000.19;5038501;28;45365;-57
2023/07/03 16:47:26;;;;;;;;;11.00;7.00;;;;;35.49;20.44;100979.56;5038265;28;45321;-57
2023/07/03 16:49:51;;;;;;;;;9.25;6.75;;;;;35.63;20.81;100978.38;5036881;28;45805;-57
2023/07/03 16:52:16;;;;;;;;;7.75;7.50;;;;;34.94;21.18;101002.69;5037330;28;61932;-59
2023/07/03 16:54:41;;;;;;;;;9.75;8.25;;;;;34.33;21.94;100989.25;5038066;28;52594;-58
2023/07/03 16:57:07;;;;;;;;;10.25;6.25;;;;;34.62;21.51;100985.91;5038279;28;54608;-57
2023/07/03 16:59:32;;;;;;;;;8.50;6.75;;;;;34.46;21.21;100984.47;5038605;28;45480;-57
2023/07/03 17:01:57;;;;;;;;;11.00;8.50;;;;;34.40;21.60;100967.81;5038638;28;45428;-59